sensor_id;sensor_type;location;lat;lon;timestamp;temperature;humidity
1524;DHT22;755;53.658;10.118;2023-11-22T00:03:16;2.10;99.90
1524;DHT22;755;53.658;10.118;2023-11-22T00:13:18;1.90;99.90
1524;DHT22;755;53.658;10.118;2023-11-22T00:23:24;1.90;99.90
1524;DHT22;755;53.658;10.118;2023-11-22T00:33:31;1.70;99.90
1524;DHT22;755;53.658;10.118;2023-11-22T00:43:37;1.50;99.90
1524;DHT22;755;53.658;10.118;2023-11-22T00:53:39;1.50;99.90
1524;DHT22;755;53.658;10.118;2023-11-22T01:03:42;1.50;99.90
1524;DHT22;755;53.658;10.118;2023-11-22T01:13:44;1.30;99.90
1524;DHT22;755;53.658;10.118;2023-11-22T01:23:48;1.10;99.90
1524;DHT22;755;53.658;10.118;2023-11-22T01:33:50;1.00;99.90
1524;DHT22;755;53.658;10.118;2023-11-22T01:43:53;1.10;99.90
1524;DHT22;755;53.658;10.118;2023-11-22T01:53:57;1.10;99.90
1524;DHT22;755;53.658;10.118;2023-11-22T02:04:02;1.10;99.90
1524;DHT22;755;53.658;10.118;2023-11-22T02:14:04;1.00;99.90
1524;DHT22;755;53.658;10.118;2023-11-22T02:24:10;0.90;99.90
1524;DHT22;755;53.658;10.118;2023-11-22T02:34:13;0.70;99.90
1524;DHT22;755;53.658;10.118;2023-11-22T02:44:17;0.70;99.90
1524;DHT22;755;53.658;10.118;2023-11-22T02:54:19;0.80;99.90
1524;DHT22;755;53.658;10.118;2023-11-22T03:04:22;0.70;99.90
1524;DHT22;755;53.658;10.118;2023-11-22T03:14:25;0.60;99.90
1524;DHT22;755;53.658;10.118;2023-11-22T03:24:30;0.40;99.90
1524;DHT22;755;53.658;10.118;2023-11-22T03:34:33;0.60;99.90
1524;DHT22;755;53.658;10.118;2023-11-22T03:44:37;0.40;99.90
1524;DHT22;755;53.658;10.118;2023-11-22T03:54:41;0.40;99.90
1524;DHT22;755;53.658;10.118;2023-11-22T04:04:45;0.40;99.90
1524;DHT22;755;53.658;10.118;2023-11-22T04:14:48;0.40;99.90
1524;DHT22;755;53.658;10.118;2023-11-22T04:24:55;0.50;99.90
1524;DHT22;755;53.658;10.118;2023-11-22T04:35:10;0.40;99.90
1524;DHT22;755;53.658;10.118;2023-11-22T04:45:22;0.20;99.90
1524;DHT22;755;53.658;10.118;2023-11-22T04:55:25;0.20;99.90
1524;DHT22;755;53.658;10.118;2023-11-22T05:05:30;0.10;99.90
1524;DHT22;755;53.658;10.118;2023-11-22T05:16:00;0.20;99.90
1524;DHT22;755;53.658;10.118;2023-11-22T05:26:09;0.20;99.90
1524;DHT22;755;53.658;10.118;2023-11-22T05:36:20;0.30;99.90
1524;DHT22;755;53.658;10.118;2023-11-22T05:46:56;0.20;99.90
1524;DHT22;755;53.658;10.118;2023-11-22T05:57:12;0.20;99.90
1524;DHT22;755;53.658;10.118;2023-11-22T06:07:31;0.00;99.90
1524;DHT22;755;53.658;10.118;2023-11-22T06:17:44;-0.20;99.90
1524;DHT22;755;53.658;10.118;2023-11-22T06:28:08;-0.10;99.90
1524;DHT22;755;53.658;10.118;2023-11-22T06:38:33;0.00;99.90
1524;DHT22;755;53.658;10.118;2023-11-22T06:48:37;0.10;99.90
1524;DHT22;755;53.658;10.118;2023-11-22T06:58:39;0.10;99.90
1524;DHT22;755;53.658;10.118;2023-11-22T07:08:44;0.30;99.90
1524;DHT22;755;53.658;10.118;2023-11-22T07:18:52;0.30;99.90
1524;DHT22;755;53.658;10.118;2023-11-22T07:29:02;0.40;99.90
1524;DHT22;755;53.658;10.118;2023-11-22T07:39:04;0.40;99.90
1524;DHT22;755;53.658;10.118;2023-11-22T07:49:07;0.60;99.90
1524;DHT22;755;53.658;10.118;2023-11-22T07:59:10;0.60;99.90
1524;DHT22;755;53.658;10.118;2023-11-22T08:09:19;0.70;99.90
1524;DHT22;755;53.658;10.118;2023-11-22T08:19:21;0.90;99.90
1524;DHT22;755;53.658;10.118;2023-11-22T08:29:26;1.10;99.90
1524;DHT22;755;53.658;10.118;2023-11-22T08:39:28;1.20;99.90
1524;DHT22;755;53.658;10.118;2023-11-22T08:49:37;1.40;99.90
1524;DHT22;755;53.658;10.118;2023-11-22T08:59:48;1.40;99.90
1524;DHT22;755;53.658;10.118;2023-11-22T09:09:51;1.50;99.90
1524;DHT22;755;53.658;10.118;2023-11-22T09:19:55;1.70;99.90
1524;DHT22;755;53.658;10.118;2023-11-22T09:30:00;1.80;99.90
1524;DHT22;755;53.658;10.118;2023-11-22T09:40:04;2.00;99.90
1524;DHT22;755;53.658;10.118;2023-11-22T09:50:11;2.20;99.90
1524;DHT22;755;53.658;10.118;2023-11-22T10:00:16;2.30;99.90
1524;DHT22;755;53.658;10.118;2023-11-22T10:10:38;2.40;99.90
1524;DHT22;755;53.658;10.118;2023-11-22T10:20:45;2.60;99.90
1524;DHT22;755;53.658;10.118;2023-11-22T10:30:49;2.80;99.90
1524;DHT22;755;53.658;10.118;2023-11-22T10:40:54;2.90;99.90
1524;DHT22;755;53.658;10.118;2023-11-22T10:51:01;3.10;99.90
1524;DHT22;755;53.658;10.118;2023-11-22T11:01:05;3.30;99.90
1524;DHT22;755;53.658;10.118;2023-11-22T11:11:10;3.40;99.90
1524;DHT22;755;53.658;10.118;2023-11-22T11:21:12;3.50;99.90
1524;DHT22;755;53.658;10.118;2023-11-22T11:31:21;3.60;99.90
1524;DHT22;755;53.658;10.118;2023-11-22T11:41:24;3.70;99.90
1524;DHT22;755;53.658;10.118;2023-11-22T11:51:29;3.70;99.90
1524;DHT22;755;53.658;10.118;2023-11-22T12:01:31;3.70;99.90
1524;DHT22;755;53.658;10.118;2023-11-22T12:11:34;3.80;99.90
1524;DHT22;755;53.658;10.118;2023-11-22T12:21:37;3.90;99.90
1524;DHT22;755;53.658;10.118;2023-11-22T12:31:50;3.90;99.90
1524;DHT22;755;53.658;10.118;2023-11-22T12:42:04;3.80;99.90
1524;DHT22;755;53.658;10.118;2023-11-22T12:52:37;3.80;99.90
1524;DHT22;755;53.658;10.118;2023-11-22T13:02:55;3.70;99.90
1524;DHT22;755;53.658;10.118;2023-11-22T13:13:07;3.60;1.00
1524;DHT22;755;53.658;10.118;2023-11-22T13:23:29;3.60;1.00
1524;DHT22;755;53.658;10.118;2023-11-22T13:33:51;3.60;34.10
1524;DHT22;755;53.658;10.118;2023-11-22T13:43:53;3.60;38.20
1524;DHT22;755;53.658;10.118;2023-11-22T13:54:06;3.70;1.00
1524;DHT22;755;53.658;10.118;2023-11-22T14:04:15;3.60;1.00
1524;DHT22;755;53.658;10.118;2023-11-22T14:14:18;3.60;99.90
1524;DHT22;755;53.658;10.118;2023-11-22T14:24:20;3.60;99.90
1524;DHT22;755;53.658;10.118;2023-11-22T14:34:24;3.50;27.30
1524;DHT22;755;53.658;10.118;2023-11-22T14:44:26;3.50;1.00
1524;DHT22;755;53.658;10.118;2023-11-22T14:54:29;3.50;1.00
1524;DHT22;755;53.658;10.118;2023-11-22T15:04:31;3.40;1.60
1524;DHT22;755;53.658;10.118;2023-11-22T15:14:37;3.30;1.00
1524;DHT22;755;53.658;10.118;2023-11-22T15:24:38;3.30;99.90
1524;DHT22;755;53.658;10.118;2023-11-22T15:34:42;3.20;50.00
1524;DHT22;755;53.658;10.118;2023-11-22T15:44:43;3.20;99.90
1524;DHT22;755;53.658;10.118;2023-11-22T15:54:47;3.10;99.90
1524;DHT22;755;53.658;10.118;2023-11-22T16:04:49;3.10;99.90
1524;DHT22;755;53.658;10.118;2023-11-22T16:14:52;3.00;99.90
1524;DHT22;755;53.658;10.118;2023-11-22T16:24:54;3.00;99.90
1524;DHT22;755;53.658;10.118;2023-11-22T16:34:58;3.00;99.90
1524;DHT22;755;53.658;10.118;2023-11-22T16:45:00;2.90;99.90
1524;DHT22;755;53.658;10.118;2023-11-22T16:55:04;2.80;1.00
1524;DHT22;755;53.658;10.118;2023-11-22T17:05:07;2.80;1.00
1524;DHT22;755;53.658;10.118;2023-11-22T17:15:11;2.70;1.00
1524;DHT22;755;53.658;10.118;2023-11-22T17:25:12;2.70;99.90
1524;DHT22;755;53.658;10.118;2023-11-22T17:35:18;2.80;99.90
1524;DHT22;755;53.658;10.118;2023-11-22T17:45:21;2.70;99.90
1524;DHT22;755;53.658;10.118;2023-11-22T17:55:24;2.80;1.00
1524;DHT22;755;53.658;10.118;2023-11-22T18:05:26;2.90;1.00
1524;DHT22;755;53.658;10.118;2023-11-22T18:15:30;2.90;1.00
1524;DHT22;755;53.658;10.118;2023-11-22T18:25:32;2.90;1.00
1524;DHT22;755;53.658;10.118;2023-11-22T18:35:35;3.00;99.90
1524;DHT22;755;53.658;10.118;2023-11-22T18:45:39;3.00;1.00
1524;DHT22;755;53.658;10.118;2023-11-22T18:55:43;3.10;1.00
1524;DHT22;755;53.658;10.118;2023-11-22T19:05:45;3.10;1.00
1524;DHT22;755;53.658;10.118;2023-11-22T19:15:49;3.20;1.00
1524;DHT22;755;53.658;10.118;2023-11-22T19:25:51;3.40;1.00
1524;DHT22;755;53.658;10.118;2023-11-22T19:36:00;3.40;1.00
1524;DHT22;755;53.658;10.118;2023-11-22T19:46:02;3.50;1.00
1524;DHT22;755;53.658;10.118;2023-11-22T19:56:05;3.40;1.00
1524;DHT22;755;53.658;10.118;2023-11-22T20:06:10;3.40;1.00
1524;DHT22;755;53.658;10.118;2023-11-22T20:16:13;3.40;32.70
1524;DHT22;755;53.658;10.118;2023-11-22T20:26:15;3.60;1.00
1524;DHT22;755;53.658;10.118;2023-11-22T20:36:19;3.70;1.00
1524;DHT22;755;53.658;10.118;2023-11-22T20:46:23;3.80;1.00
1524;DHT22;755;53.658;10.118;2023-11-22T20:56:26;4.00;99.90
1524;DHT22;755;53.658;10.118;2023-11-22T21:06:28;4.10;1.00
1524;DHT22;755;53.658;10.118;2023-11-22T21:16:32;4.20;1.00
1524;DHT22;755;53.658;10.118;2023-11-22T21:49:24;4.40;99.90
1524;DHT22;755;53.658;10.118;2023-11-22T21:59:26;4.60;99.90
1524;DHT22;755;53.658;10.118;2023-11-22T22:09:29;4.70;99.90
1524;DHT22;755;53.658;10.118;2023-11-22T22:19:32;4.70;99.90
1524;DHT22;755;53.658;10.118;2023-11-22T22:29:35;4.70;99.90
1524;DHT22;755;53.658;10.118;2023-11-22T22:39:37;4.70;99.90
1524;DHT22;755;53.658;10.118;2023-11-22T22:49:40;4.70;99.90
1524;DHT22;755;53.658;10.118;2023-11-22T22:59:42;4.70;99.90
1524;DHT22;755;53.658;10.118;2023-11-22T23:09:47;4.70;99.90
1524;DHT22;755;53.658;10.118;2023-11-22T23:19:49;4.70;99.90
1524;DHT22;755;53.658;10.118;2023-11-22T23:29:53;4.80;99.90
1524;DHT22;755;53.658;10.118;2023-11-22T23:39:56;4.80;99.90
1524;DHT22;755;53.658;10.118;2023-11-22T23:50:08;5.00;99.90
